sensor_id;sensor_type;location;lat;lon;timestamp;temperature;humidity
19037;DHT22;9651;49.138;8.900;2022-08-20T00:01:01;21.30;99.90
19037;DHT22;9651;49.138;8.900;2022-08-20T00:05:04;21.20;99.90
19037;DHT22;9651;49.138;8.900;2022-08-20T00:09:07;21.10;99.90
19037;DHT22;9651;49.138;8.900;2022-08-20T00:13:13;21.10;99.90
19037;DHT22;9651;49.138;8.900;2022-08-20T00:17:15;21.00;99.90
19037;DHT22;9651;49.138;8.900;2022-08-20T00:21:19;20.90;99.90
19037;DHT22;9651;49.138;8.900;2022-08-20T00:25:27;20.90;99.90
19037;DHT22;9651;49.138;8.900;2022-08-20T00:29:29;20.90;99.90
19037;DHT22;9651;49.138;8.900;2022-08-20T00:33:31;20.80;99.90
19037;DHT22;9651;49.138;8.900;2022-08-20T00:37:33;20.80;99.90
19037;DHT22;9651;49.138;8.900;2022-08-20T00:41:37;20.70;99.90
19037;DHT22;9651;49.138;8.900;2022-08-20T00:45:39;20.60;99.90
19037;DHT22;9651;49.138;8.900;2022-08-20T00:49:40;20.60;99.90
19037;DHT22;9651;49.138;8.900;2022-08-20T00:53:43;20.50;99.90
19037;DHT22;9651;49.138;8.900;2022-08-20T00:57:48;20.50;99.90
19037;DHT22;9651;49.138;8.900;2022-08-20T01:01:53;20.50;99.90
19037;DHT22;9651;49.138;8.900;2022-08-20T01:05:57;20.50;99.90
19037;DHT22;9651;49.138;8.900;2022-08-20T01:09:59;20.40;99.90
19037;DHT22;9651;49.138;8.900;2022-08-20T01:14:06;20.40;99.90
19037;DHT22;9651;49.138;8.900;2022-08-20T01:18:25;20.30;99.90
19037;DHT22;9651;49.138;8.900;2022-08-20T01:22:34;20.20;99.90
19037;DHT22;9651;49.138;8.900;2022-08-20T01:27:00;20.20;99.90
19037;DHT22;9651;49.138;8.900;2022-08-20T01:31:04;20.20;99.90
19037;DHT22;9651;49.138;8.900;2022-08-20T01:35:08;20.20;99.90
19037;DHT22;9651;49.138;8.900;2022-08-20T01:39:14;20.20;99.90
19037;DHT22;9651;49.138;8.900;2022-08-20T01:43:18;20.20;99.90
19037;DHT22;9651;49.138;8.900;2022-08-20T01:47:23;20.20;99.90
19037;DHT22;9651;49.138;8.900;2022-08-20T01:51:28;20.20;99.90
19037;DHT22;9651;49.138;8.900;2022-08-20T01:55:31;20.10;99.90
19037;DHT22;9651;49.138;8.900;2022-08-20T01:59:34;20.00;99.90
19037;DHT22;9651;49.138;8.900;2022-08-20T02:03:37;19.90;99.90
19037;DHT22;9651;49.138;8.900;2022-08-20T02:07:39;19.80;99.90
19037;DHT22;9651;49.138;8.900;2022-08-20T02:11:41;19.70;99.90
19037;DHT22;9651;49.138;8.900;2022-08-20T02:15:44;19.70;99.90
19037;DHT22;9651;49.138;8.900;2022-08-20T02:19:48;19.60;99.90
19037;DHT22;9651;49.138;8.900;2022-08-20T02:23:51;19.60;99.90
19037;DHT22;9651;49.138;8.900;2022-08-20T02:27:54;19.60;99.90
19037;DHT22;9651;49.138;8.900;2022-08-20T02:31:58;19.50;99.90
19037;DHT22;9651;49.138;8.900;2022-08-20T02:36:00;19.50;99.90
19037;DHT22;9651;49.138;8.900;2022-08-20T02:40:03;19.50;99.90
19037;DHT22;9651;49.138;8.900;2022-08-20T02:44:07;19.60;99.90
19037;DHT22;9651;49.138;8.900;2022-08-20T02:48:15;19.60;99.90
19037;DHT22;9651;49.138;8.900;2022-08-20T02:52:20;19.70;99.90
19037;DHT22;9651;49.138;8.900;2022-08-20T02:56:22;19.70;99.90
19037;DHT22;9651;49.138;8.900;2022-08-20T03:00:24;19.80;99.90
19037;DHT22;9651;49.138;8.900;2022-08-20T03:04:28;19.80;99.90
19037;DHT22;9651;49.138;8.900;2022-08-20T03:08:30;19.80;99.90
19037;DHT22;9651;49.138;8.900;2022-08-20T03:12:32;19.80;99.90
19037;DHT22;9651;49.138;8.900;2022-08-20T03:16:33;19.90;99.90
19037;DHT22;9651;49.138;8.900;2022-08-20T03:20:37;19.90;99.90
19037;DHT22;9651;49.138;8.900;2022-08-20T03:24:39;20.00;99.90
19037;DHT22;9651;49.138;8.900;2022-08-20T03:28:42;20.00;99.90
19037;DHT22;9651;49.138;8.900;2022-08-20T03:32:44;20.00;99.90
19037;DHT22;9651;49.138;8.900;2022-08-20T03:36:48;20.10;99.90
19037;DHT22;9651;49.138;8.900;2022-08-20T03:40:50;20.10;99.90
19037;DHT22;9651;49.138;8.900;2022-08-20T03:44:52;20.20;99.90
19037;DHT22;9651;49.138;8.900;2022-08-20T03:48:54;20.20;99.90
19037;DHT22;9651;49.138;8.900;2022-08-20T03:52:58;20.30;99.90
19037;DHT22;9651;49.138;8.900;2022-08-20T03:57:01;20.30;99.90
19037;DHT22;9651;49.138;8.900;2022-08-20T04:01:05;20.40;99.90
19037;DHT22;9651;49.138;8.900;2022-08-20T04:05:08;20.40;99.90
19037;DHT22;9651;49.138;8.900;2022-08-20T04:09:11;20.40;99.90
19037;DHT22;9651;49.138;8.900;2022-08-20T04:13:14;20.40;99.90
19037;DHT22;9651;49.138;8.900;2022-08-20T04:17:18;20.40;99.90
19037;DHT22;9651;49.138;8.900;2022-08-20T04:21:20;20.50;99.90
19037;DHT22;9651;49.138;8.900;2022-08-20T04:25:23;20.50;99.90
19037;DHT22;9651;49.138;8.900;2022-08-20T04:29:25;20.40;99.90
19037;DHT22;9651;49.138;8.900;2022-08-20T04:33:28;20.40;99.90
19037;DHT22;9651;49.138;8.900;2022-08-20T04:37:31;20.50;99.90
19037;DHT22;9651;49.138;8.900;2022-08-20T04:41:34;20.50;99.90
19037;DHT22;9651;49.138;8.900;2022-08-20T04:45:36;20.50;99.90
19037;DHT22;9651;49.138;8.900;2022-08-20T04:49:38;20.60;99.90
19037;DHT22;9651;49.138;8.900;2022-08-20T04:53:41;20.60;99.90
19037;DHT22;9651;49.138;8.900;2022-08-20T04:57:45;20.70;99.90
19037;DHT22;9651;49.138;8.900;2022-08-20T05:01:47;20.70;99.90
19037;DHT22;9651;49.138;8.900;2022-08-20T05:05:49;20.70;99.90
19037;DHT22;9651;49.138;8.900;2022-08-20T05:09:52;20.60;99.90
19037;DHT22;9651;49.138;8.900;2022-08-20T05:13:55;20.50;99.90
19037;DHT22;9651;49.138;8.900;2022-08-20T05:17:58;20.50;99.90
19037;DHT22;9651;49.138;8.900;2022-08-20T05:22:02;20.50;99.90
19037;DHT22;9651;49.138;8.900;2022-08-20T05:26:04;20.50;99.90
19037;DHT22;9651;49.138;8.900;2022-08-20T05:30:11;20.50;99.90
19037;DHT22;9651;49.138;8.900;2022-08-20T05:34:12;20.50;99.90
19037;DHT22;9651;49.138;8.900;2022-08-20T05:38:16;20.40;99.90
19037;DHT22;9651;49.138;8.900;2022-08-20T05:42:18;20.60;99.90
19037;DHT22;9651;49.138;8.900;2022-08-20T05:46:22;20.70;99.90
19037;DHT22;9651;49.138;8.900;2022-08-20T05:50:24;20.70;99.90
19037;DHT22;9651;49.138;8.900;2022-08-20T05:54:26;20.80;99.90
19037;DHT22;9651;49.138;8.900;2022-08-20T05:58:27;20.80;99.90
19037;DHT22;9651;49.138;8.900;2022-08-20T06:02:33;20.90;99.90
19037;DHT22;9651;49.138;8.900;2022-08-20T06:06:55;21.00;99.90
19037;DHT22;9651;49.138;8.900;2022-08-20T06:10:57;21.20;99.90
19037;DHT22;9651;49.138;8.900;2022-08-20T06:14:59;21.20;99.90
19037;DHT22;9651;49.138;8.900;2022-08-20T06:19:03;21.30;99.90
19037;DHT22;9651;49.138;8.900;2022-08-20T06:23:05;21.40;99.90
19037;DHT22;9651;49.138;8.900;2022-08-20T06:27:07;21.60;99.90
19037;DHT22;9651;49.138;8.900;2022-08-20T06:31:13;21.70;99.90
19037;DHT22;9651;49.138;8.900;2022-08-20T06:35:17;21.80;99.90
19037;DHT22;9651;49.138;8.900;2022-08-20T06:39:19;21.80;99.90
19037;DHT22;9651;49.138;8.900;2022-08-20T06:43:21;21.90;99.90
19037;DHT22;9651;49.138;8.900;2022-08-20T06:47:23;22.00;99.90
19037;DHT22;9651;49.138;8.900;2022-08-20T06:51:26;22.00;99.90
19037;DHT22;9651;49.138;8.900;2022-08-20T06:55:28;22.10;99.90
19037;DHT22;9651;49.138;8.900;2022-08-20T06:59:30;22.30;99.90
19037;DHT22;9651;49.138;8.900;2022-08-20T07:03:32;22.50;99.90
19037;DHT22;9651;49.138;8.900;2022-08-20T07:07:36;22.70;99.90
19037;DHT22;9651;49.138;8.900;2022-08-20T07:11:37;22.90;99.90
19037;DHT22;9651;49.138;8.900;2022-08-20T07:15:39;23.00;99.90
19037;DHT22;9651;49.138;8.900;2022-08-20T07:19:41;23.00;99.90
19037;DHT22;9651;49.138;8.900;2022-08-20T07:23:45;23.10;99.90
19037;DHT22;9651;49.138;8.900;2022-08-20T07:27:49;23.10;99.90
19037;DHT22;9651;49.138;8.900;2022-08-20T07:31:52;23.20;99.90
19037;DHT22;9651;49.138;8.900;2022-08-20T07:36:11;23.10;99.90
19037;DHT22;9651;49.138;8.900;2022-08-20T07:40:19;23.10;99.90
19037;DHT22;9651;49.138;8.900;2022-08-20T07:44:22;23.00;99.90
19037;DHT22;9651;49.138;8.900;2022-08-20T07:48:24;23.00;99.90
19037;DHT22;9651;49.138;8.900;2022-08-20T07:52:28;23.00;99.90
19037;DHT22;9651;49.138;8.900;2022-08-20T07:56:31;23.10;99.90
19037;DHT22;9651;49.138;8.900;2022-08-20T08:00:34;23.00;99.90
19037;DHT22;9651;49.138;8.900;2022-08-20T08:04:36;22.90;99.90
19037;DHT22;9651;49.138;8.900;2022-08-20T08:08:39;22.80;99.90
19037;DHT22;9651;49.138;8.900;2022-08-20T08:12:45;22.50;99.90
19037;DHT22;9651;49.138;8.900;2022-08-20T08:16:48;22.20;99.90
19037;DHT22;9651;49.138;8.900;2022-08-20T08:20:52;21.80;99.90
19037;DHT22;9651;49.138;8.900;2022-08-20T08:24:54;21.80;99.90
19037;DHT22;9651;49.138;8.900;2022-08-20T08:29:00;21.90;99.90
19037;DHT22;9651;49.138;8.900;2022-08-20T08:33:03;21.90;99.90
19037;DHT22;9651;49.138;8.900;2022-08-20T08:37:22;21.80;99.90
19037;DHT22;9651;49.138;8.900;2022-08-20T08:41:28;21.70;99.90
19037;DHT22;9651;49.138;8.900;2022-08-20T08:45:39;21.70;99.90
19037;DHT22;9651;49.138;8.900;2022-08-20T08:49:45;21.60;99.90
19037;DHT22;9651;49.138;8.900;2022-08-20T08:53:50;21.50;99.90
19037;DHT22;9651;49.138;8.900;2022-08-20T08:57:56;21.60;99.90
19037;DHT22;9651;49.138;8.900;2022-08-20T09:02:00;21.70;99.90
19037;DHT22;9651;49.138;8.900;2022-08-20T09:06:03;21.80;99.90
19037;DHT22;9651;49.138;8.900;2022-08-20T09:10:06;22.00;99.90
19037;DHT22;9651;49.138;8.900;2022-08-20T09:14:08;22.30;99.90
19037;DHT22;9651;49.138;8.900;2022-08-20T09:18:12;22.50;99.90
19037;DHT22;9651;49.138;8.900;2022-08-20T09:22:15;23.00;99.90
19037;DHT22;9651;49.138;8.900;2022-08-20T09:26:18;23.70;99.90
19037;DHT22;9651;49.138;8.900;2022-08-20T09:30:20;24.50;99.90
19037;DHT22;9651;49.138;8.900;2022-08-20T09:34:23;24.80;99.90
19037;DHT22;9651;49.138;8.900;2022-08-20T09:38:26;24.90;99.90
19037;DHT22;9651;49.138;8.900;2022-08-20T09:42:30;25.20;99.90
19037;DHT22;9651;49.138;8.900;2022-08-20T09:46:32;25.30;99.90
19037;DHT22;9651;49.138;8.900;2022-08-20T09:50:35;25.60;99.90
19037;DHT22;9651;49.138;8.900;2022-08-20T09:54:39;25.50;99.90
19037;DHT22;9651;49.138;8.900;2022-08-20T09:58:46;24.90;99.90
19037;DHT22;9651;49.138;8.900;2022-08-20T10:02:48;24.60;99.90
19037;DHT22;9651;49.138;8.900;2022-08-20T10:06:52;24.20;99.90
19037;DHT22;9651;49.138;8.900;2022-08-20T10:10:53;23.70;99.90
19037;DHT22;9651;49.138;8.900;2022-08-20T10:14:55;23.60;99.90
19037;DHT22;9651;49.138;8.900;2022-08-20T10:18:57;23.40;99.90
19037;DHT22;9651;49.138;8.900;2022-08-20T10:23:00;23.30;99.90
19037;DHT22;9651;49.138;8.900;2022-08-20T10:27:03;23.40;99.90
19037;DHT22;9651;49.138;8.900;2022-08-20T10:31:05;23.40;99.90
19037;DHT22;9651;49.138;8.900;2022-08-20T10:35:08;23.50;99.90
19037;DHT22;9651;49.138;8.900;2022-08-20T10:39:11;23.70;99.90
19037;DHT22;9651;49.138;8.900;2022-08-20T10:43:13;24.00;99.90
19037;DHT22;9651;49.138;8.900;2022-08-20T10:47:19;24.90;99.90
19037;DHT22;9651;49.138;8.900;2022-08-20T10:51:21;26.40;99.90
19037;DHT22;9651;49.138;8.900;2022-08-20T10:55:24;28.20;99.90
19037;DHT22;9651;49.138;8.900;2022-08-20T10:59:26;29.70;99.90
19037;DHT22;9651;49.138;8.900;2022-08-20T11:03:43;29.80;99.90
19037;DHT22;9651;49.138;8.900;2022-08-20T11:07:45;29.80;99.90
19037;DHT22;9651;49.138;8.900;2022-08-20T11:11:47;31.30;99.90
19037;DHT22;9651;49.138;8.900;2022-08-20T11:15:49;32.50;99.90
19037;DHT22;9651;49.138;8.900;2022-08-20T11:19:53;33.80;99.90
19037;DHT22;9651;49.138;8.900;2022-08-20T11:23:56;34.70;99.90
19037;DHT22;9651;49.138;8.900;2022-08-20T11:27:58;33.80;99.90
19037;DHT22;9651;49.138;8.900;2022-08-20T11:32:00;33.30;99.90
19037;DHT22;9651;49.138;8.900;2022-08-20T11:36:04;33.20;99.90
19037;DHT22;9651;49.138;8.900;2022-08-20T11:40:07;33.00;99.90
19037;DHT22;9651;49.138;8.900;2022-08-20T11:44:11;32.80;99.90
19037;DHT22;9651;49.138;8.900;2022-08-20T11:48:13;32.30;99.70
19037;DHT22;9651;49.138;8.900;2022-08-20T11:52:16;32.20;99.90
19037;DHT22;9651;49.138;8.900;2022-08-20T11:56:18;31.60;99.90
19037;DHT22;9651;49.138;8.900;2022-08-20T12:00:22;31.00;99.90
19037;DHT22;9651;49.138;8.900;2022-08-20T12:04:24;31.10;99.90
19037;DHT22;9651;49.138;8.900;2022-08-20T12:08:27;31.00;99.90
19037;DHT22;9651;49.138;8.900;2022-08-20T12:12:29;30.60;99.90
19037;DHT22;9651;49.138;8.900;2022-08-20T12:16:31;30.20;99.90
19037;DHT22;9651;49.138;8.900;2022-08-20T12:20:33;29.90;99.90
19037;DHT22;9651;49.138;8.900;2022-08-20T12:24:37;29.70;99.90
19037;DHT22;9651;49.138;8.900;2022-08-20T12:28:40;29.60;99.90
19037;DHT22;9651;49.138;8.900;2022-08-20T12:32:42;29.10;99.90
19037;DHT22;9651;49.138;8.900;2022-08-20T12:36:44;28.70;99.90
19037;DHT22;9651;49.138;8.900;2022-08-20T12:40:47;28.80;99.90
19037;DHT22;9651;49.138;8.900;2022-08-20T12:44:49;28.90;99.90
19037;DHT22;9651;49.138;8.900;2022-08-20T12:48:51;29.10;99.90
19037;DHT22;9651;49.138;8.900;2022-08-20T12:52:54;29.10;99.90
19037;DHT22;9651;49.138;8.900;2022-08-20T12:56:57;30.20;99.90
19037;DHT22;9651;49.138;8.900;2022-08-20T13:00:59;32.20;98.40
19037;DHT22;9651;49.138;8.900;2022-08-20T13:05:01;34.60;94.80
19037;DHT22;9651;49.138;8.900;2022-08-20T13:09:03;35.90;91.80
19037;DHT22;9651;49.138;8.900;2022-08-20T13:13:06;38.50;85.40
19037;DHT22;9651;49.138;8.900;2022-08-20T13:17:09;38.10;80.60
19037;DHT22;9651;49.138;8.900;2022-08-20T13:21:11;38.20;81.00
19037;DHT22;9651;49.138;8.900;2022-08-20T13:25:13;39.60;76.20
19037;DHT22;9651;49.138;8.900;2022-08-20T13:29:17;39.40;73.50
19037;DHT22;9651;49.138;8.900;2022-08-20T13:33:19;38.00;74.00
19037;DHT22;9651;49.138;8.900;2022-08-20T13:37:22;38.40;73.50
19037;DHT22;9651;49.138;8.900;2022-08-20T13:41:25;39.80;69.20
19037;DHT22;9651;49.138;8.900;2022-08-20T13:45:28;41.10;66.30
19037;DHT22;9651;49.138;8.900;2022-08-20T13:49:30;41.60;64.30
19037;DHT22;9651;49.138;8.900;2022-08-20T13:53:32;42.70;60.60
19037;DHT22;9651;49.138;8.900;2022-08-20T13:57:34;41.60;58.70
19037;DHT22;9651;49.138;8.900;2022-08-20T14:01:37;38.90;59.40
19037;DHT22;9651;49.138;8.900;2022-08-20T14:05:39;36.70;60.70
19037;DHT22;9651;49.138;8.900;2022-08-20T14:09:43;34.80;60.90
19037;DHT22;9651;49.138;8.900;2022-08-20T14:13:46;33.90;62.90
19037;DHT22;9651;49.138;8.900;2022-08-20T14:17:51;32.70;64.20
19037;DHT22;9651;49.138;8.900;2022-08-20T14:21:53;31.90;65.30
19037;DHT22;9651;49.138;8.900;2022-08-20T14:25:55;31.40;66.80
19037;DHT22;9651;49.138;8.900;2022-08-20T14:29:57;31.40;66.70
19037;DHT22;9651;49.138;8.900;2022-08-20T14:34:01;31.30;67.80
19037;DHT22;9651;49.138;8.900;2022-08-20T14:38:03;30.90;68.70
19037;DHT22;9651;49.138;8.900;2022-08-20T14:42:05;30.80;70.30
19037;DHT22;9651;49.138;8.900;2022-08-20T14:46:07;31.00;71.40
19037;DHT22;9651;49.138;8.900;2022-08-20T14:50:12;31.10;71.10
19037;DHT22;9651;49.138;8.900;2022-08-20T14:54:15;31.70;69.80
19037;DHT22;9651;49.138;8.900;2022-08-20T14:58:17;34.30;66.90
19037;DHT22;9651;49.138;8.900;2022-08-20T15:02:18;36.70;61.50
19037;DHT22;9651;49.138;8.900;2022-08-20T15:06:23;38.30;58.20
19037;DHT22;9651;49.138;8.900;2022-08-20T15:10:27;38.90;56.60
19037;DHT22;9651;49.138;8.900;2022-08-20T15:14:29;39.30;55.40
19037;DHT22;9651;49.138;8.900;2022-08-20T15:18:31;39.00;55.00
19037;DHT22;9651;49.138;8.900;2022-08-20T15:22:35;39.80;54.50
19037;DHT22;9651;49.138;8.900;2022-08-20T15:26:37;40.10;53.20
19037;DHT22;9651;49.138;8.900;2022-08-20T15:30:40;39.30;54.20
19037;DHT22;9651;49.138;8.900;2022-08-20T15:34:42;39.00;53.80
19037;DHT22;9651;49.138;8.900;2022-08-20T15:38:45;38.40;54.90
19037;DHT22;9651;49.138;8.900;2022-08-20T15:42:47;38.00;54.90
19037;DHT22;9651;49.138;8.900;2022-08-20T15:46:49;37.70;54.90
19037;DHT22;9651;49.138;8.900;2022-08-20T15:51:00;37.20;55.20
19037;DHT22;9651;49.138;8.900;2022-08-20T15:55:07;37.40;54.80
19037;DHT22;9651;49.138;8.900;2022-08-20T15:59:37;36.90;55.10
19037;DHT22;9651;49.138;8.900;2022-08-20T16:04:03;37.10;53.10
19037;DHT22;9651;49.138;8.900;2022-08-20T16:08:23;36.50;53.60
19037;DHT22;9651;49.138;8.900;2022-08-20T16:12:36;35.40;52.70
19037;DHT22;9651;49.138;8.900;2022-08-20T16:16:42;35.20;50.60
19037;DHT22;9651;49.138;8.900;2022-08-20T16:20:47;35.40;49.20
19037;DHT22;9651;49.138;8.900;2022-08-20T16:24:49;35.40;49.10
19037;DHT22;9651;49.138;8.900;2022-08-20T16:29:00;35.30;49.90
19037;DHT22;9651;49.138;8.900;2022-08-20T16:33:08;34.80;49.30
19037;DHT22;9651;49.138;8.900;2022-08-20T16:37:20;34.80;49.30
19037;DHT22;9651;49.138;8.900;2022-08-20T16:41:27;34.20;49.40
19037;DHT22;9651;49.138;8.900;2022-08-20T16:45:41;33.70;49.70
19037;DHT22;9651;49.138;8.900;2022-08-20T16:49:48;33.10;50.30
19037;DHT22;9651;49.138;8.900;2022-08-20T16:53:51;32.90;50.80
19037;DHT22;9651;49.138;8.900;2022-08-20T16:57:53;32.10;51.20
19037;DHT22;9651;49.138;8.900;2022-08-20T17:02:05;31.70;51.60
19037;DHT22;9651;49.138;8.900;2022-08-20T17:06:16;30.90;52.50
19037;DHT22;9651;49.138;8.900;2022-08-20T17:10:23;30.10;52.80
19037;DHT22;9651;49.138;8.900;2022-08-20T17:14:26;29.50;53.60
19037;DHT22;9651;49.138;8.900;2022-08-20T17:18:31;29.10;53.70
19037;DHT22;9651;49.138;8.900;2022-08-20T17:22:40;28.80;54.70
19037;DHT22;9651;49.138;8.900;2022-08-20T17:26:44;28.50;54.60
19037;DHT22;9651;49.138;8.900;2022-08-20T17:30:47;28.20;55.60
19037;DHT22;9651;49.138;8.900;2022-08-20T17:34:53;27.90;55.90
19037;DHT22;9651;49.138;8.900;2022-08-20T17:38:58;27.60;56.30
19037;DHT22;9651;49.138;8.900;2022-08-20T17:43:02;27.30;57.30
19037;DHT22;9651;49.138;8.900;2022-08-20T17:47:06;27.10;58.30
19037;DHT22;9651;49.138;8.900;2022-08-20T17:51:15;26.90;59.60
19037;DHT22;9651;49.138;8.900;2022-08-20T17:55:18;26.70;62.10
19037;DHT22;9651;49.138;8.900;2022-08-20T17:59:24;26.50;62.50
19037;DHT22;9651;49.138;8.900;2022-08-20T18:03:27;26.20;63.20
19037;DHT22;9651;49.138;8.900;2022-08-20T18:07:52;26.00;63.60
19037;DHT22;9651;49.138;8.900;2022-08-20T18:12:00;25.80;63.60
19037;DHT22;9651;49.138;8.900;2022-08-20T18:16:04;25.60;65.10
19037;DHT22;9651;49.138;8.900;2022-08-20T18:20:19;25.30;66.50
19037;DHT22;9651;49.138;8.900;2022-08-20T18:24:31;25.10;66.90
19037;DHT22;9651;49.138;8.900;2022-08-20T18:28:37;24.90;68.20
19037;DHT22;9651;49.138;8.900;2022-08-20T18:32:42;24.60;69.40
19037;DHT22;9651;49.138;8.900;2022-08-20T18:36:53;24.20;69.30
19037;DHT22;9651;49.138;8.900;2022-08-20T18:41:08;23.90;69.60
19037;DHT22;9651;49.138;8.900;2022-08-20T18:45:10;23.80;70.60
19037;DHT22;9651;49.138;8.900;2022-08-20T18:49:12;23.50;70.70
19037;DHT22;9651;49.138;8.900;2022-08-20T18:53:16;23.40;71.70
19037;DHT22;9651;49.138;8.900;2022-08-20T18:57:23;23.30;72.20
19037;DHT22;9651;49.138;8.900;2022-08-20T19:01:25;23.10;73.30
19037;DHT22;9651;49.138;8.900;2022-08-20T19:05:32;23.00;74.70
19037;DHT22;9651;49.138;8.900;2022-08-20T19:18:46;22.60;77.20
19037;DHT22;9651;49.138;8.900;2022-08-20T19:22:52;22.40;78.30
19037;DHT22;9651;49.138;8.900;2022-08-20T19:26:56;22.40;80.40
19037;DHT22;9651;49.138;8.900;2022-08-20T19:31:08;22.10;80.50
19037;DHT22;9651;49.138;8.900;2022-08-20T19:35:16;21.90;81.70
19037;DHT22;9651;49.138;8.900;2022-08-20T19:39:20;21.80;83.00
19037;DHT22;9651;49.138;8.900;2022-08-20T19:43:22;21.80;83.90
19037;DHT22;9651;49.138;8.900;2022-08-20T19:47:29;21.60;84.40
19037;DHT22;9651;49.138;8.900;2022-08-20T19:51:37;21.60;86.40
19037;DHT22;9651;49.138;8.900;2022-08-20T19:55:41;21.60;87.80
19037;DHT22;9651;49.138;8.900;2022-08-20T19:59:54;21.50;89.10
19037;DHT22;9651;49.138;8.900;2022-08-20T20:03:58;21.40;89.50
19037;DHT22;9651;49.138;8.900;2022-08-20T20:08:03;21.20;90.30
19037;DHT22;9651;49.138;8.900;2022-08-20T20:12:11;21.10;90.50
19037;DHT22;9651;49.138;8.900;2022-08-20T20:16:21;20.90;91.00
19037;DHT22;9651;49.138;8.900;2022-08-20T20:20:26;20.80;91.40
19037;DHT22;9651;49.138;8.900;2022-08-20T20:24:39;20.60;91.30
19037;DHT22;9651;49.138;8.900;2022-08-20T20:28:43;20.60;91.60
19037;DHT22;9651;49.138;8.900;2022-08-20T20:32:48;20.60;92.00
19037;DHT22;9651;49.138;8.900;2022-08-20T20:37:01;20.50;91.90
19037;DHT22;9651;49.138;8.900;2022-08-20T20:41:05;20.50;91.30
19037;DHT22;9651;49.138;8.900;2022-08-20T20:45:18;20.50;92.00
19037;DHT22;9651;49.138;8.900;2022-08-20T20:49:22;20.50;92.00
19037;DHT22;9651;49.138;8.900;2022-08-20T20:53:28;20.40;92.20
19037;DHT22;9651;49.138;8.900;2022-08-20T20:57:33;20.30;92.70
19037;DHT22;9651;49.138;8.900;2022-08-20T21:01:37;20.20;93.40
19037;DHT22;9651;49.138;8.900;2022-08-20T21:05:39;20.10;94.30
19037;DHT22;9651;49.138;8.900;2022-08-20T21:09:41;20.00;95.20
19037;DHT22;9651;49.138;8.900;2022-08-20T21:13:44;19.90;96.20
19037;DHT22;9651;49.138;8.900;2022-08-20T21:17:46;19.70;97.30
19037;DHT22;9651;49.138;8.900;2022-08-20T21:21:48;19.60;98.60
19037;DHT22;9651;49.138;8.900;2022-08-20T21:25:50;19.50;99.60
19037;DHT22;9651;49.138;8.900;2022-08-20T21:29:54;19.40;99.90
19037;DHT22;9651;49.138;8.900;2022-08-20T21:33:56;19.20;99.90
19037;DHT22;9651;49.138;8.900;2022-08-20T21:37:58;19.20;99.90
19037;DHT22;9651;49.138;8.900;2022-08-20T21:42:02;19.20;99.90
19037;DHT22;9651;49.138;8.900;2022-08-20T21:46:07;19.10;99.90
19037;DHT22;9651;49.138;8.900;2022-08-20T21:50:11;19.00;99.90
19037;DHT22;9651;49.138;8.900;2022-08-20T21:54:15;18.90;99.90
19037;DHT22;9651;49.138;8.900;2022-08-20T21:58:18;18.90;99.90
19037;DHT22;9651;49.138;8.900;2022-08-20T22:02:22;19.00;99.90
19037;DHT22;9651;49.138;8.900;2022-08-20T22:06:24;19.00;99.90
19037;DHT22;9651;49.138;8.900;2022-08-20T22:10:26;18.90;99.90
19037;DHT22;9651;49.138;8.900;2022-08-20T22:14:28;19.00;99.90
19037;DHT22;9651;49.138;8.900;2022-08-20T22:18:32;18.90;99.90
19037;DHT22;9651;49.138;8.900;2022-08-20T22:22:34;18.90;99.90
19037;DHT22;9651;49.138;8.900;2022-08-20T22:26:38;18.80;99.90
19037;DHT22;9651;49.138;8.900;2022-08-20T22:30:40;18.60;99.90
19037;DHT22;9651;49.138;8.900;2022-08-20T22:34:44;18.40;99.90
19037;DHT22;9651;49.138;8.900;2022-08-20T22:38:46;18.30;99.90
19037;DHT22;9651;49.138;8.900;2022-08-20T22:42:48;18.20;99.90
19037;DHT22;9651;49.138;8.900;2022-08-20T22:46:52;18.20;99.90
19037;DHT22;9651;49.138;8.900;2022-08-20T22:50:58;18.30;99.90
19037;DHT22;9651;49.138;8.900;2022-08-20T22:55:02;18.30;99.90
19037;DHT22;9651;49.138;8.900;2022-08-20T22:59:04;18.30;99.90
19037;DHT22;9651;49.138;8.900;2022-08-20T23:03:06;18.30;99.90
19037;DHT22;9651;49.138;8.900;2022-08-20T23:07:11;18.20;99.90
19037;DHT22;9651;49.138;8.900;2022-08-20T23:11:13;18.20;99.90
19037;DHT22;9651;49.138;8.900;2022-08-20T23:15:15;18.10;99.90
19037;DHT22;9651;49.138;8.900;2022-08-20T23:19:19;18.00;99.90
19037;DHT22;9651;49.138;8.900;2022-08-20T23:23:24;17.90;99.90
19037;DHT22;9651;49.138;8.900;2022-08-20T23:27:26;17.80;99.90
19037;DHT22;9651;49.138;8.900;2022-08-20T23:31:28;17.70;99.90
19037;DHT22;9651;49.138;8.900;2022-08-20T23:35:30;17.40;99.90
19037;DHT22;9651;49.138;8.900;2022-08-20T23:39:34;17.40;99.90
19037;DHT22;9651;49.138;8.900;2022-08-20T23:43:36;17.40;99.90
19037;DHT22;9651;49.138;8.900;2022-08-20T23:47:39;17.40;99.90
19037;DHT22;9651;49.138;8.900;2022-08-20T23:51:40;17.40;99.90
19037;DHT22;9651;49.138;8.900;2022-08-20T23:55:44;17.30;99.90
19037;DHT22;9651;49.138;8.900;2022-08-20T23:59:46;17.20;99.90
